sensor_id;sensor_type;location;lat;lon;timestamp;P1;durP1;ratioP1;P2;durP2;ratioP2
33279;SDS011;20403;43.114;12.434;2023-04-03T00:01:29;10.40;;;1.90;;
33279;SDS011;20403;43.114;12.434;2023-04-03T00:03:55;6.63;;;1.48;;
33279;SDS011;20403;43.114;12.434;2023-04-03T00:06:21;4.75;;;1.70;;
33279;SDS011;20403;43.114;12.434;2023-04-03T00:08:46;3.30;;;1.40;;
33279;SDS011;20403;43.114;12.434;2023-04-03T00:11:12;3.95;;;1.33;;
33279;SDS011;20403;43.114;12.434;2023-04-03T00:13:38;6.25;;;1.55;;
33279;SDS011;20403;43.114;12.434;2023-04-03T00:16:04;7.18;;;2.30;;
33279;SDS011;20403;43.114;12.434;2023-04-03T00:18:30;6.03;;;1.70;;
33279;SDS011;20403;43.114;12.434;2023-04-03T00:20:56;6.45;;;1.73;;
33279;SDS011;20403;43.114;12.434;2023-04-03T00:23:21;5.10;;;1.60;;
33279;SDS011;20403;43.114;12.434;2023-04-03T00:25:48;5.40;;;1.27;;
33279;SDS011;20403;43.114;12.434;2023-04-03T00:28:14;6.78;;;2.17;;
33279;SDS011;20403;43.114;12.434;2023-04-03T00:30:40;3.10;;;1.38;;
33279;SDS011;20403;43.114;12.434;2023-04-03T00:33:06;4.57;;;1.55;;
33279;SDS011;20403;43.114;12.434;2023-04-03T00:35:32;6.07;;;1.52;;
33279;SDS011;20403;43.114;12.434;2023-04-03T00:37:59;6.05;;;1.42;;
33279;SDS011;20403;43.114;12.434;2023-04-03T00:40:26;5.72;;;1.58;;
33279;SDS011;20403;43.114;12.434;2023-04-03T00:42:57;9.95;;;1.67;;
33279;SDS011;20403;43.114;12.434;2023-04-03T00:45:31;8.48;;;2.30;;
33279;SDS011;20403;43.114;12.434;2023-04-03T00:48:02;8.35;;;1.95;;
33279;SDS011;20403;43.114;12.434;2023-04-03T00:50:31;9.02;;;1.88;;
33279;SDS011;20403;43.114;12.434;2023-04-03T00:52:59;4.45;;;1.60;;
33279;SDS011;20403;43.114;12.434;2023-04-03T00:55:25;3.03;;;1.20;;
33279;SDS011;20403;43.114;12.434;2023-04-03T00:57:51;8.00;;;2.00;;
33279;SDS011;20403;43.114;12.434;2023-04-03T01:00:18;2.90;;;1.40;;
33279;SDS011;20403;43.114;12.434;2023-04-03T01:02:47;5.85;;;1.38;;
33279;SDS011;20403;43.114;12.434;2023-04-03T01:05:12;5.97;;;1.50;;
33279;SDS011;20403;43.114;12.434;2023-04-03T01:07:41;5.97;;;1.60;;
33279;SDS011;20403;43.114;12.434;2023-04-03T01:10:08;2.88;;;1.15;;
33279;SDS011;20403;43.114;12.434;2023-04-03T01:12:37;7.28;;;1.70;;
33279;SDS011;20403;43.114;12.434;2023-04-03T01:25:16;8.00;;;1.90;;
33279;SDS011;20403;43.114;12.434;2023-04-03T01:27:42;7.97;;;1.50;;
33279;SDS011;20403;43.114;12.434;2023-04-03T01:30:07;6.28;;;2.00;;
33279;SDS011;20403;43.114;12.434;2023-04-03T01:32:33;3.53;;;1.70;;
33279;SDS011;20403;43.114;12.434;2023-04-03T01:34:59;8.00;;;2.28;;
33279;SDS011;20403;43.114;12.434;2023-04-03T01:37:24;3.70;;;1.58;;
33279;SDS011;20403;43.114;12.434;2023-04-03T01:39:50;7.60;;;1.70;;
33279;SDS011;20403;43.114;12.434;2023-04-03T01:42:15;6.60;;;2.10;;
33279;SDS011;20403;43.114;12.434;2023-04-03T01:44:41;5.18;;;1.65;;
33279;SDS011;20403;43.114;12.434;2023-04-03T01:47:06;4.50;;;1.63;;
33279;SDS011;20403;43.114;12.434;2023-04-03T01:49:32;4.80;;;2.03;;
33279;SDS011;20403;43.114;12.434;2023-04-03T01:51:57;2.63;;;1.60;;
33279;SDS011;20403;43.114;12.434;2023-04-03T01:54:23;5.55;;;1.70;;
33279;SDS011;20403;43.114;12.434;2023-04-03T01:56:48;4.15;;;1.70;;
33279;SDS011;20403;43.114;12.434;2023-04-03T01:59:14;8.07;;;1.65;;
33279;SDS011;20403;43.114;12.434;2023-04-03T02:01:42;6.80;;;1.67;;
33279;SDS011;20403;43.114;12.434;2023-04-03T02:04:10;9.63;;;1.80;;
33279;SDS011;20403;43.114;12.434;2023-04-03T02:06:35;5.78;;;1.60;;
33279;SDS011;20403;43.114;12.434;2023-04-03T02:09:01;5.20;;;1.73;;
33279;SDS011;20403;43.114;12.434;2023-04-03T02:11:26;3.42;;;1.60;;
33279;SDS011;20403;43.114;12.434;2023-04-03T02:13:52;6.03;;;1.60;;
33279;SDS011;20403;43.114;12.434;2023-04-03T02:16:17;3.03;;;1.42;;
33279;SDS011;20403;43.114;12.434;2023-04-03T02:18:42;5.43;;;1.90;;
33279;SDS011;20403;43.114;12.434;2023-04-03T02:21:08;5.60;;;1.90;;
33279;SDS011;20403;43.114;12.434;2023-04-03T02:23:34;8.23;;;1.77;;
33279;SDS011;20403;43.114;12.434;2023-04-03T02:26:02;8.10;;;1.92;;
33279;SDS011;20403;43.114;12.434;2023-04-03T02:28:36;7.95;;;1.38;;
33279;SDS011;20403;43.114;12.434;2023-04-03T02:31:02;3.25;;;1.70;;
33279;SDS011;20403;43.114;12.434;2023-04-03T02:33:28;4.53;;;1.85;;
33279;SDS011;20403;43.114;12.434;2023-04-03T02:35:57;8.55;;;1.70;;
33279;SDS011;20403;43.114;12.434;2023-04-03T02:38:23;3.25;;;1.52;;
33279;SDS011;20403;43.114;12.434;2023-04-03T02:40:49;5.78;;;1.70;;
33279;SDS011;20403;43.114;12.434;2023-04-03T02:43:16;4.05;;;1.50;;
33279;SDS011;20403;43.114;12.434;2023-04-03T02:45:42;3.03;;;1.65;;
33279;SDS011;20403;43.114;12.434;2023-04-03T02:48:07;4.53;;;1.73;;
33279;SDS011;20403;43.114;12.434;2023-04-03T02:50:33;4.43;;;1.60;;
33279;SDS011;20403;43.114;12.434;2023-04-03T02:52:58;4.28;;;1.58;;
33279;SDS011;20403;43.114;12.434;2023-04-03T02:55:24;5.88;;;1.67;;
33279;SDS011;20403;43.114;12.434;2023-04-03T02:57:50;6.75;;;1.30;;
33279;SDS011;20403;43.114;12.434;2023-04-03T03:00:15;5.78;;;1.80;;
33279;SDS011;20403;43.114;12.434;2023-04-03T03:02:41;5.90;;;1.80;;
33279;SDS011;20403;43.114;12.434;2023-04-03T03:05:06;3.47;;;1.40;;
33279;SDS011;20403;43.114;12.434;2023-04-03T03:07:33;3.42;;;1.70;;
33279;SDS011;20403;43.114;12.434;2023-04-03T03:09:58;2.58;;;1.50;;
33279;SDS011;20403;43.114;12.434;2023-04-03T03:12:24;3.65;;;1.40;;
33279;SDS011;20403;43.114;12.434;2023-04-03T03:14:49;3.60;;;1.65;;
33279;SDS011;20403;43.114;12.434;2023-04-03T03:17:15;6.15;;;1.70;;
33279;SDS011;20403;43.114;12.434;2023-04-03T03:19:41;5.63;;;1.58;;
33279;SDS011;20403;43.114;12.434;2023-04-03T03:22:06;4.40;;;1.98;;
33279;SDS011;20403;43.114;12.434;2023-04-03T03:24:32;6.25;;;1.52;;
33279;SDS011;20403;43.114;12.434;2023-04-03T03:26:57;4.43;;;1.70;;
33279;SDS011;20403;43.114;12.434;2023-04-03T03:29:22;10.48;;;2.45;;
33279;SDS011;20403;43.114;12.434;2023-04-03T03:31:48;4.60;;;2.05;;
33279;SDS011;20403;43.114;12.434;2023-04-03T03:34:13;5.03;;;1.70;;
33279;SDS011;20403;43.114;12.434;2023-04-03T03:36:39;7.50;;;2.88;;
33279;SDS011;20403;43.114;12.434;2023-04-03T03:39:04;21.75;;;1.95;;
33279;SDS011;20403;43.114;12.434;2023-04-03T03:41:30;15.13;;;2.15;;
33279;SDS011;20403;43.114;12.434;2023-04-03T03:43:56;11.07;;;2.15;;
33279;SDS011;20403;43.114;12.434;2023-04-03T03:46:22;15.00;;;2.08;;
33279;SDS011;20403;43.114;12.434;2023-04-03T03:48:47;9.57;;;2.08;;
33279;SDS011;20403;43.114;12.434;2023-04-03T03:51:12;4.32;;;1.67;;
33279;SDS011;20403;43.114;12.434;2023-04-03T03:53:38;9.10;;;1.60;;
33279;SDS011;20403;43.114;12.434;2023-04-03T03:56:04;9.18;;;2.15;;
33279;SDS011;20403;43.114;12.434;2023-04-03T03:58:29;4.55;;;1.67;;
33279;SDS011;20403;43.114;12.434;2023-04-03T04:00:55;5.70;;;1.60;;
33279;SDS011;20403;43.114;12.434;2023-04-03T04:03:20;4.68;;;1.88;;
33279;SDS011;20403;43.114;12.434;2023-04-03T04:05:46;6.55;;;1.50;;
33279;SDS011;20403;43.114;12.434;2023-04-03T04:08:11;5.38;;;1.52;;
33279;SDS011;20403;43.114;12.434;2023-04-03T04:10:37;3.55;;;1.95;;
33279;SDS011;20403;43.114;12.434;2023-04-03T04:13:03;7.07;;;2.80;;
33279;SDS011;20403;43.114;12.434;2023-04-03T04:15:28;2.95;;;1.63;;
33279;SDS011;20403;43.114;12.434;2023-04-03T04:17:54;11.63;;;3.17;;
33279;SDS011;20403;43.114;12.434;2023-04-03T04:20:19;6.38;;;1.38;;
33279;SDS011;20403;43.114;12.434;2023-04-03T04:22:45;5.07;;;1.70;;
33279;SDS011;20403;43.114;12.434;2023-04-03T04:25:10;4.60;;;1.50;;
33279;SDS011;20403;43.114;12.434;2023-04-03T04:27:35;5.50;;;1.95;;
33279;SDS011;20403;43.114;12.434;2023-04-03T04:30:02;11.80;;;3.15;;
33279;SDS011;20403;43.114;12.434;2023-04-03T04:32:28;6.63;;;1.90;;
33279;SDS011;20403;43.114;12.434;2023-04-03T04:34:54;4.82;;;1.77;;
33279;SDS011;20403;43.114;12.434;2023-04-03T04:37:19;6.30;;;2.20;;
33279;SDS011;20403;43.114;12.434;2023-04-03T04:39:45;5.43;;;1.88;;
33279;SDS011;20403;43.114;12.434;2023-04-03T04:42:10;5.22;;;1.60;;
33279;SDS011;20403;43.114;12.434;2023-04-03T04:44:38;4.47;;;1.40;;
33279;SDS011;20403;43.114;12.434;2023-04-03T04:47:04;9.32;;;1.65;;
33279;SDS011;20403;43.114;12.434;2023-04-03T04:49:29;4.28;;;1.42;;
33279;SDS011;20403;43.114;12.434;2023-04-03T04:51:55;14.35;;;2.00;;
33279;SDS011;20403;43.114;12.434;2023-04-03T04:54:20;4.47;;;1.42;;
33279;SDS011;20403;43.114;12.434;2023-04-03T04:56:46;3.97;;;1.08;;
33279;SDS011;20403;43.114;12.434;2023-04-03T04:59:11;4.75;;;1.10;;
33279;SDS011;20403;43.114;12.434;2023-04-03T05:01:37;5.28;;;0.82;;
33279;SDS011;20403;43.114;12.434;2023-04-03T05:04:02;10.80;;;0.88;;
33279;SDS011;20403;43.114;12.434;2023-04-03T05:06:27;4.45;;;0.60;;
33279;SDS011;20403;43.114;12.434;2023-04-03T05:08:55;3.20;;;0.68;;
33279;SDS011;20403;43.114;12.434;2023-04-03T05:11:20;9.60;;;1.23;;
33279;SDS011;20403;43.114;12.434;2023-04-03T05:13:46;5.40;;;1.20;;
33279;SDS011;20403;43.114;12.434;2023-04-03T05:16:11;5.53;;;1.75;;
33279;SDS011;20403;43.114;12.434;2023-04-03T05:18:36;8.77;;;1.30;;
33279;SDS011;20403;43.114;12.434;2023-04-03T05:21:02;5.10;;;0.80;;
33279;SDS011;20403;43.114;12.434;2023-04-03T05:23:27;7.18;;;1.27;;
33279;SDS011;20403;43.114;12.434;2023-04-03T05:25:53;7.05;;;0.90;;
33279;SDS011;20403;43.114;12.434;2023-04-03T05:28:18;5.88;;;1.15;;
33279;SDS011;20403;43.114;12.434;2023-04-03T05:30:43;8.15;;;1.10;;
33279;SDS011;20403;43.114;12.434;2023-04-03T05:33:09;7.38;;;2.00;;
33279;SDS011;20403;43.114;12.434;2023-04-03T05:35:35;9.50;;;1.20;;
33279;SDS011;20403;43.114;12.434;2023-04-03T05:38:04;4.90;;;1.00;;
33279;SDS011;20403;43.114;12.434;2023-04-03T05:40:30;12.75;;;1.95;;
33279;SDS011;20403;43.114;12.434;2023-04-03T05:42:55;19.05;;;1.25;;
33279;SDS011;20403;43.114;12.434;2023-04-03T05:45:20;6.15;;;1.10;;
33279;SDS011;20403;43.114;12.434;2023-04-03T05:47:46;4.20;;;1.17;;
33279;SDS011;20403;43.114;12.434;2023-04-03T05:50:12;7.05;;;1.10;;
33279;SDS011;20403;43.114;12.434;2023-04-03T05:52:38;5.05;;;1.30;;
33279;SDS011;20403;43.114;12.434;2023-04-03T05:55:07;9.50;;;1.27;;
33279;SDS011;20403;43.114;12.434;2023-04-03T05:57:33;5.47;;;1.00;;
33279;SDS011;20403;43.114;12.434;2023-04-03T05:59:58;7.45;;;1.05;;
33279;SDS011;20403;43.114;12.434;2023-04-03T06:02:24;8.30;;;0.80;;
33279;SDS011;20403;43.114;12.434;2023-04-03T06:04:50;8.05;;;1.00;;
33279;SDS011;20403;43.114;12.434;2023-04-03T06:07:20;4.40;;;0.90;;
33279;SDS011;20403;43.114;12.434;2023-04-03T06:09:48;4.88;;;1.20;;
33279;SDS011;20403;43.114;12.434;2023-04-03T06:12:16;5.32;;;0.98;;
33279;SDS011;20403;43.114;12.434;2023-04-03T06:14:42;8.68;;;1.63;;
33279;SDS011;20403;43.114;12.434;2023-04-03T06:17:07;7.50;;;1.35;;
33279;SDS011;20403;43.114;12.434;2023-04-03T06:19:34;5.53;;;1.20;;
33279;SDS011;20403;43.114;12.434;2023-04-03T06:22:00;13.43;;;1.30;;
33279;SDS011;20403;43.114;12.434;2023-04-03T06:24:25;5.68;;;1.08;;
33279;SDS011;20403;43.114;12.434;2023-04-03T06:26:51;10.77;;;2.35;;
33279;SDS011;20403;43.114;12.434;2023-04-03T06:29:17;9.57;;;1.70;;
33279;SDS011;20403;43.114;12.434;2023-04-03T06:31:43;4.68;;;0.98;;
33279;SDS011;20403;43.114;12.434;2023-04-03T06:34:09;7.97;;;1.45;;
33279;SDS011;20403;43.114;12.434;2023-04-03T06:36:36;6.15;;;1.13;;
33279;SDS011;20403;43.114;12.434;2023-04-03T06:39:01;11.43;;;1.17;;
33279;SDS011;20403;43.114;12.434;2023-04-03T06:41:28;7.25;;;1.10;;
33279;SDS011;20403;43.114;12.434;2023-04-03T06:43:53;9.25;;;1.80;;
33279;SDS011;20403;43.114;12.434;2023-04-03T06:46:21;9.70;;;1.25;;
33279;SDS011;20403;43.114;12.434;2023-04-03T06:48:47;5.75;;;0.75;;
33279;SDS011;20403;43.114;12.434;2023-04-03T06:51:20;5.10;;;1.08;;
33279;SDS011;20403;43.114;12.434;2023-04-03T06:53:48;7.18;;;1.02;;
33279;SDS011;20403;43.114;12.434;2023-04-03T06:56:15;4.90;;;0.90;;
33279;SDS011;20403;43.114;12.434;2023-04-03T06:58:41;5.05;;;0.80;;
33279;SDS011;20403;43.114;12.434;2023-04-03T07:01:07;7.10;;;1.25;;
33279;SDS011;20403;43.114;12.434;2023-04-03T07:03:35;6.55;;;0.90;;
33279;SDS011;20403;43.114;12.434;2023-04-03T07:06:01;3.75;;;1.10;;
33279;SDS011;20403;43.114;12.434;2023-04-03T07:08:26;5.30;;;1.27;;
33279;SDS011;20403;43.114;12.434;2023-04-03T07:10:52;3.88;;;0.90;;
33279;SDS011;20403;43.114;12.434;2023-04-03T07:13:17;5.57;;;1.23;;
33279;SDS011;20403;43.114;12.434;2023-04-03T07:15:42;6.78;;;1.10;;
33279;SDS011;20403;43.114;12.434;2023-04-03T07:18:09;5.28;;;1.00;;
33279;SDS011;20403;43.114;12.434;2023-04-03T07:20:34;5.07;;;1.15;;
33279;SDS011;20403;43.114;12.434;2023-04-03T07:23:00;4.65;;;1.00;;
33279;SDS011;20403;43.114;12.434;2023-04-03T07:25:27;6.50;;;1.20;;
33279;SDS011;20403;43.114;12.434;2023-04-03T07:27:52;6.43;;;0.90;;
33279;SDS011;20403;43.114;12.434;2023-04-03T07:30:19;7.25;;;1.13;;
33279;SDS011;20403;43.114;12.434;2023-04-03T07:32:45;9.15;;;1.98;;
33279;SDS011;20403;43.114;12.434;2023-04-03T07:35:11;13.93;;;1.60;;
33279;SDS011;20403;43.114;12.434;2023-04-03T07:37:37;7.90;;;1.85;;
33279;SDS011;20403;43.114;12.434;2023-04-03T07:40:02;10.00;;;1.80;;
33279;SDS011;20403;43.114;12.434;2023-04-03T07:42:29;12.52;;;1.70;;
33279;SDS011;20403;43.114;12.434;2023-04-03T07:44:54;10.48;;;2.10;;
33279;SDS011;20403;43.114;12.434;2023-04-03T07:47:20;7.40;;;1.40;;
33279;SDS011;20403;43.114;12.434;2023-04-03T07:49:46;9.27;;;1.65;;
33279;SDS011;20403;43.114;12.434;2023-04-03T07:52:12;7.03;;;1.40;;
33279;SDS011;20403;43.114;12.434;2023-04-03T07:54:38;7.78;;;1.38;;
33279;SDS011;20403;43.114;12.434;2023-04-03T07:57:03;9.18;;;1.88;;
33279;SDS011;20403;43.114;12.434;2023-04-03T07:59:30;7.93;;;1.73;;
33279;SDS011;20403;43.114;12.434;2023-04-03T08:01:55;6.70;;;2.17;;
33279;SDS011;20403;43.114;12.434;2023-04-03T08:04:21;9.63;;;1.80;;
33279;SDS011;20403;43.114;12.434;2023-04-03T08:06:46;9.45;;;1.63;;
33279;SDS011;20403;43.114;12.434;2023-04-03T08:09:12;11.15;;;1.70;;
33279;SDS011;20403;43.114;12.434;2023-04-03T08:11:39;11.82;;;2.03;;
33279;SDS011;20403;43.114;12.434;2023-04-03T08:14:04;15.40;;;2.03;;
33279;SDS011;20403;43.114;12.434;2023-04-03T08:16:30;12.10;;;2.45;;
33279;SDS011;20403;43.114;12.434;2023-04-03T08:18:55;12.82;;;2.80;;
33279;SDS011;20403;43.114;12.434;2023-04-03T08:21:21;10.15;;;2.13;;
33279;SDS011;20403;43.114;12.434;2023-04-03T08:23:47;11.52;;;2.08;;
33279;SDS011;20403;43.114;12.434;2023-04-03T08:26:17;13.18;;;1.90;;
33279;SDS011;20403;43.114;12.434;2023-04-03T08:28:45;12.38;;;2.10;;
33279;SDS011;20403;43.114;12.434;2023-04-03T08:31:12;9.48;;;1.95;;
33279;SDS011;20403;43.114;12.434;2023-04-03T08:33:40;8.80;;;2.50;;
33279;SDS011;20403;43.114;12.434;2023-04-03T08:36:06;11.77;;;2.30;;
33279;SDS011;20403;43.114;12.434;2023-04-03T08:38:40;7.90;;;2.08;;
33279;SDS011;20403;43.114;12.434;2023-04-03T08:46:21;9.18;;;2.08;;
33279;SDS011;20403;43.114;12.434;2023-04-03T08:48:51;15.05;;;2.53;;
33279;SDS011;20403;43.114;12.434;2023-04-03T08:51:19;14.63;;;2.08;;
33279;SDS011;20403;43.114;12.434;2023-04-03T08:53:56;12.40;;;2.17;;
33279;SDS011;20403;43.114;12.434;2023-04-03T08:56:25;12.70;;;3.05;;
33279;SDS011;20403;43.114;12.434;2023-04-03T08:58:58;10.68;;;2.28;;
33279;SDS011;20403;43.114;12.434;2023-04-03T09:01:36;12.70;;;2.92;;
33279;SDS011;20403;43.114;12.434;2023-04-03T09:04:14;16.45;;;2.80;;
33279;SDS011;20403;43.114;12.434;2023-04-03T09:06:44;9.60;;;2.00;;
33279;SDS011;20403;43.114;12.434;2023-04-03T09:12:19;9.10;;;2.10;;
33279;SDS011;20403;43.114;12.434;2023-04-03T09:17:53;13.23;;;2.70;;
33279;SDS011;20403;43.114;12.434;2023-04-03T09:23:00;7.45;;;1.63;;
33279;SDS011;20403;43.114;12.434;2023-04-03T09:25:31;16.00;;;2.15;;
33279;SDS011;20403;43.114;12.434;2023-04-03T09:28:01;13.88;;;3.22;;
33279;SDS011;20403;43.114;12.434;2023-04-03T09:30:27;13.27;;;2.58;;
33279;SDS011;20403;43.114;12.434;2023-04-03T09:32:54;19.17;;;3.10;;
33279;SDS011;20403;43.114;12.434;2023-04-03T09:37:55;21.27;;;3.55;;
33279;SDS011;20403;43.114;12.434;2023-04-03T09:40:40;10.45;;;2.53;;
33279;SDS011;20403;43.114;12.434;2023-04-03T09:45:53;13.70;;;3.13;;
33279;SDS011;20403;43.114;12.434;2023-04-03T09:48:26;12.68;;;2.28;;
33279;SDS011;20403;43.114;12.434;2023-04-03T09:50:57;8.52;;;2.08;;
33279;SDS011;20403;43.114;12.434;2023-04-03T09:53:38;7.25;;;1.83;;
33279;SDS011;20403;43.114;12.434;2023-04-03T09:56:28;12.02;;;2.40;;
33279;SDS011;20403;43.114;12.434;2023-04-03T10:04:02;13.10;;;3.22;;
33279;SDS011;20403;43.114;12.434;2023-04-03T10:06:39;9.60;;;2.55;;
33279;SDS011;20403;43.114;12.434;2023-04-03T10:09:18;14.63;;;2.25;;
33279;SDS011;20403;43.114;12.434;2023-04-03T10:14:30;12.98;;;3.35;;
33279;SDS011;20403;43.114;12.434;2023-04-03T10:25:18;8.95;;;2.17;;
33279;SDS011;20403;43.114;12.434;2023-04-03T10:44:28;12.93;;;4.45;;
33279;SDS011;20403;43.114;12.434;2023-04-03T10:46:58;12.38;;;3.00;;
33279;SDS011;20403;43.114;12.434;2023-04-03T10:52:17;10.43;;;3.30;;
33279;SDS011;20403;43.114;12.434;2023-04-03T10:54:53;9.48;;;2.53;;
33279;SDS011;20403;43.114;12.434;2023-04-03T10:57:32;11.43;;;2.00;;
33279;SDS011;20403;43.114;12.434;2023-04-03T11:00:03;14.40;;;2.80;;
33279;SDS011;20403;43.114;12.434;2023-04-03T11:02:39;12.43;;;2.22;;
33279;SDS011;20403;43.114;12.434;2023-04-03T11:08:05;15.65;;;2.22;;
33279;SDS011;20403;43.114;12.434;2023-04-03T11:10:48;12.70;;;2.30;;
33279;SDS011;20403;43.114;12.434;2023-04-03T11:15:52;10.13;;;2.13;;
33279;SDS011;20403;43.114;12.434;2023-04-03T11:18:22;11.10;;;2.30;;
33279;SDS011;20403;43.114;12.434;2023-04-03T11:20:57;10.23;;;1.50;;
33279;SDS011;20403;43.114;12.434;2023-04-03T11:23:38;13.35;;;2.50;;
33279;SDS011;20403;43.114;12.434;2023-04-03T11:26:12;13.65;;;3.05;;
33279;SDS011;20403;43.114;12.434;2023-04-03T11:28:39;13.88;;;3.05;;
33279;SDS011;20403;43.114;12.434;2023-04-03T11:33:55;11.93;;;2.92;;
33279;SDS011;20403;43.114;12.434;2023-04-03T11:36:24;11.32;;;2.70;;
33279;SDS011;20403;43.114;12.434;2023-04-03T11:38:54;16.88;;;2.72;;
33279;SDS011;20403;43.114;12.434;2023-04-03T11:41:29;9.43;;;2.35;;
33279;SDS011;20403;43.114;12.434;2023-04-03T11:43:58;18.48;;;2.45;;
33279;SDS011;20403;43.114;12.434;2023-04-03T12:14:19;13.55;;;2.28;;
33279;SDS011;20403;43.114;12.434;2023-04-03T12:42:25;14.43;;;2.50;;
33279;SDS011;20403;43.114;12.434;2023-04-03T12:47:35;9.27;;;2.10;;
33279;SDS011;20403;43.114;12.434;2023-04-03T12:50:03;12.93;;;2.67;;
33279;SDS011;20403;43.114;12.434;2023-04-03T12:52:41;15.10;;;2.67;;
33279;SDS011;20403;43.114;12.434;2023-04-03T12:55:19;15.05;;;2.08;;
33279;SDS011;20403;43.114;12.434;2023-04-03T12:57:45;10.18;;;2.30;;
33279;SDS011;20403;43.114;12.434;2023-04-03T13:00:18;9.48;;;2.97;;
33279;SDS011;20403;43.114;12.434;2023-04-03T13:02:45;10.88;;;3.00;;
33279;SDS011;20403;43.114;12.434;2023-04-03T13:05:13;15.50;;;2.55;;
33279;SDS011;20403;43.114;12.434;2023-04-03T13:07:42;8.68;;;2.53;;
33279;SDS011;20403;43.114;12.434;2023-04-03T13:12:47;10.75;;;2.22;;
33279;SDS011;20403;43.114;12.434;2023-04-03T13:17:48;13.77;;;2.15;;
33279;SDS011;20403;43.114;12.434;2023-04-03T13:22:52;14.20;;;2.45;;
33279;SDS011;20403;43.114;12.434;2023-04-03T13:25:31;16.13;;;3.22;;
33279;SDS011;20403;43.114;12.434;2023-04-03T13:27:59;12.45;;;2.30;;
33279;SDS011;20403;43.114;12.434;2023-04-03T13:30:30;14.73;;;2.50;;
33279;SDS011;20403;43.114;12.434;2023-04-03T13:32:57;9.70;;;2.17;;
33279;SDS011;20403;43.114;12.434;2023-04-03T13:35:31;15.32;;;2.40;;
33279;SDS011;20403;43.114;12.434;2023-04-03T13:37:58;12.07;;;2.40;;
33279;SDS011;20403;43.114;12.434;2023-04-03T13:40:26;10.85;;;2.97;;
33279;SDS011;20403;43.114;12.434;2023-04-03T13:43:05;11.68;;;3.38;;
33279;SDS011;20403;43.114;12.434;2023-04-03T13:45:53;15.47;;;4.30;;
33279;SDS011;20403;43.114;12.434;2023-04-03T13:48:38;10.48;;;2.65;;
33279;SDS011;20403;43.114;12.434;2023-04-03T13:53:42;10.73;;;2.42;;
33279;SDS011;20403;43.114;12.434;2023-04-03T13:56:16;14.95;;;2.38;;
33279;SDS011;20403;43.114;12.434;2023-04-03T14:04:18;14.10;;;2.45;;
33279;SDS011;20403;43.114;12.434;2023-04-03T14:06:45;10.80;;;2.58;;
33279;SDS011;20403;43.114;12.434;2023-04-03T14:09:12;10.88;;;2.50;;
33279;SDS011;20403;43.114;12.434;2023-04-03T14:11:39;15.48;;;2.80;;
33279;SDS011;20403;43.114;12.434;2023-04-03T14:14:16;11.45;;;2.75;;
33279;SDS011;20403;43.114;12.434;2023-04-03T14:16:45;9.85;;;2.67;;
33279;SDS011;20403;43.114;12.434;2023-04-03T14:19:16;8.50;;;2.55;;
33279;SDS011;20403;43.114;12.434;2023-04-03T14:21:51;14.25;;;2.67;;
33279;SDS011;20403;43.114;12.434;2023-04-03T14:24:17;13.77;;;2.22;;
33279;SDS011;20403;43.114;12.434;2023-04-03T14:26:44;8.43;;;2.47;;
33279;SDS011;20403;43.114;12.434;2023-04-03T14:29:11;21.00;;;2.78;;
33279;SDS011;20403;43.114;12.434;2023-04-03T14:31:38;10.25;;;2.40;;
33279;SDS011;20403;43.114;12.434;2023-04-03T14:34:04;11.65;;;2.60;;
33279;SDS011;20403;43.114;12.434;2023-04-03T14:36:30;11.98;;;2.47;;
33279;SDS011;20403;43.114;12.434;2023-04-03T14:38:59;11.27;;;2.88;;
33279;SDS011;20403;43.114;12.434;2023-04-03T14:41:26;7.65;;;2.50;;
33279;SDS011;20403;43.114;12.434;2023-04-03T14:43:52;11.27;;;2.00;;
33279;SDS011;20403;43.114;12.434;2023-04-03T14:46:19;12.05;;;1.92;;
33279;SDS011;20403;43.114;12.434;2023-04-03T14:48:45;14.27;;;2.80;;
33279;SDS011;20403;43.114;12.434;2023-04-03T14:51:11;16.02;;;2.55;;
33279;SDS011;20403;43.114;12.434;2023-04-03T14:53:38;13.02;;;3.00;;
33279;SDS011;20403;43.114;12.434;2023-04-03T14:56:08;9.85;;;2.13;;
33279;SDS011;20403;43.114;12.434;2023-04-03T14:58:47;13.77;;;2.03;;
33279;SDS011;20403;43.114;12.434;2023-04-03T15:01:15;10.02;;;1.77;;
33279;SDS011;20403;43.114;12.434;2023-04-03T15:03:42;13.25;;;2.20;;
33279;SDS011;20403;43.114;12.434;2023-04-03T15:06:08;9.55;;;2.35;;
33279;SDS011;20403;43.114;12.434;2023-04-03T15:08:36;10.73;;;2.83;;
33279;SDS011;20403;43.114;12.434;2023-04-03T15:11:02;10.95;;;3.17;;
33279;SDS011;20403;43.114;12.434;2023-04-03T15:13:27;11.02;;;3.03;;
33279;SDS011;20403;43.114;12.434;2023-04-03T15:15:53;11.75;;;2.15;;
33279;SDS011;20403;43.114;12.434;2023-04-03T15:18:20;26.10;;;3.13;;
33279;SDS011;20403;43.114;12.434;2023-04-03T15:20:53;10.63;;;2.30;;
33279;SDS011;20403;43.114;12.434;2023-04-03T15:23:20;9.82;;;2.25;;
33279;SDS011;20403;43.114;12.434;2023-04-03T15:25:46;11.15;;;2.78;;
33279;SDS011;20403;43.114;12.434;2023-04-03T15:30:51;10.35;;;2.35;;
33279;SDS011;20403;43.114;12.434;2023-04-03T15:33:16;10.00;;;2.13;;
33279;SDS011;20403;43.114;12.434;2023-04-03T15:35:42;14.73;;;3.45;;
33279;SDS011;20403;43.114;12.434;2023-04-03T15:38:07;13.70;;;2.45;;
33279;SDS011;20403;43.114;12.434;2023-04-03T15:40:33;14.10;;;2.63;;
33279;SDS011;20403;43.114;12.434;2023-04-03T15:42:58;11.23;;;2.63;;
33279;SDS011;20403;43.114;12.434;2023-04-03T15:45:24;9.10;;;3.00;;
33279;SDS011;20403;43.114;12.434;2023-04-03T15:47:50;23.25;;;3.90;;
33279;SDS011;20403;43.114;12.434;2023-04-03T15:50:15;8.32;;;2.45;;
33279;SDS011;20403;43.114;12.434;2023-04-03T15:52:41;11.18;;;2.00;;
33279;SDS011;20403;43.114;12.434;2023-04-03T15:55:06;8.60;;;2.10;;
33279;SDS011;20403;43.114;12.434;2023-04-03T15:57:32;15.60;;;2.13;;
33279;SDS011;20403;43.114;12.434;2023-04-03T15:59:57;12.05;;;2.25;;
33279;SDS011;20403;43.114;12.434;2023-04-03T16:02:22;12.18;;;2.05;;
33279;SDS011;20403;43.114;12.434;2023-04-03T16:04:52;9.20;;;2.10;;
33279;SDS011;20403;43.114;12.434;2023-04-03T16:07:19;9.40;;;2.30;;
33279;SDS011;20403;43.114;12.434;2023-04-03T16:09:44;8.70;;;2.67;;
33279;SDS011;20403;43.114;12.434;2023-04-03T16:12:11;10.68;;;1.88;;
33279;SDS011;20403;43.114;12.434;2023-04-03T16:14:37;9.60;;;1.95;;
33279;SDS011;20403;43.114;12.434;2023-04-03T16:17:02;11.07;;;2.05;;
33279;SDS011;20403;43.114;12.434;2023-04-03T16:19:28;11.07;;;2.80;;
33279;SDS011;20403;43.114;12.434;2023-04-03T16:21:54;6.50;;;2.22;;
33279;SDS011;20403;43.114;12.434;2023-04-03T16:24:20;13.55;;;2.65;;
33279;SDS011;20403;43.114;12.434;2023-04-03T16:26:46;12.10;;;3.05;;
33279;SDS011;20403;43.114;12.434;2023-04-03T16:29:11;11.85;;;2.90;;
33279;SDS011;20403;43.114;12.434;2023-04-03T16:31:36;17.20;;;6.03;;
33279;SDS011;20403;43.114;12.434;2023-04-03T16:34:02;29.98;;;13.73;;
33279;SDS011;20403;43.114;12.434;2023-04-03T16:36:28;19.23;;;6.60;;
33279;SDS011;20403;43.114;12.434;2023-04-03T16:38:53;14.52;;;5.00;;
33279;SDS011;20403;43.114;12.434;2023-04-03T16:41:18;14.18;;;2.60;;
33279;SDS011;20403;43.114;12.434;2023-04-03T16:43:44;16.70;;;2.47;;
33279;SDS011;20403;43.114;12.434;2023-04-03T16:46:09;7.75;;;2.33;;
33279;SDS011;20403;43.114;12.434;2023-04-03T16:48:35;9.60;;;2.92;;
33279;SDS011;20403;43.114;12.434;2023-04-03T16:51:00;9.20;;;2.92;;
33279;SDS011;20403;43.114;12.434;2023-04-03T16:53:26;7.18;;;2.00;;
33279;SDS011;20403;43.114;12.434;2023-04-03T16:55:52;12.73;;;3.25;;
33279;SDS011;20403;43.114;12.434;2023-04-03T16:58:18;9.43;;;2.95;;